sensor_id;sensor_type;location;lat;lon;timestamp;P1;durP1;ratioP1;P2;durP2;ratioP2
21843;SDS011;11084;52.482;9.108;2023-03-03T00:01:41;17.43;;;8.50;;
21843;SDS011;11084;52.482;9.108;2023-03-03T00:04:06;17.40;;;8.33;;
21843;SDS011;11084;52.482;9.108;2023-03-03T00:06:33;17.23;;;7.23;;
21843;SDS011;11084;52.482;9.108;2023-03-03T00:08:59;16.13;;;7.87;;
21843;SDS011;11084;52.482;9.108;2023-03-03T00:11:26;27.27;;;8.43;;
21843;SDS011;11084;52.482;9.108;2023-03-03T00:13:53;21.30;;;8.07;;
21843;SDS011;11084;52.482;9.108;2023-03-03T00:16:31;17.90;;;8.70;;
21843;SDS011;11084;52.482;9.108;2023-03-03T00:19:02;16.93;;;7.37;;
21843;SDS011;11084;52.482;9.108;2023-03-03T00:21:40;21.13;;;7.47;;
21843;SDS011;11084;52.482;9.108;2023-03-03T00:24:14;14.63;;;7.23;;
21843;SDS011;11084;52.482;9.108;2023-03-03T00:26:52;16.93;;;7.13;;
21843;SDS011;11084;52.482;9.108;2023-03-03T00:29:35;20.47;;;7.53;;
21843;SDS011;11084;52.482;9.108;2023-03-03T00:34:58;23.07;;;6.90;;
21843;SDS011;11084;52.482;9.108;2023-03-03T00:37:43;17.27;;;6.60;;
21843;SDS011;11084;52.482;9.108;2023-03-03T00:40:23;11.50;;;6.37;;
21843;SDS011;11084;52.482;9.108;2023-03-03T00:43:00;14.33;;;6.77;;
21843;SDS011;11084;52.482;9.108;2023-03-03T00:45:56;19.93;;;6.90;;
21843;SDS011;11084;52.482;9.108;2023-03-03T00:48:24;12.87;;;5.63;;
21843;SDS011;11084;52.482;9.108;2023-03-03T00:50:51;15.20;;;6.20;;
21843;SDS011;11084;52.482;9.108;2023-03-03T00:53:20;27.63;;;9.03;;
21843;SDS011;11084;52.482;9.108;2023-03-03T00:55:53;19.63;;;7.93;;
21843;SDS011;11084;52.482;9.108;2023-03-03T00:58:20;27.93;;;8.80;;
21843;SDS011;11084;52.482;9.108;2023-03-03T01:00:48;31.83;;;7.60;;
21843;SDS011;11084;52.482;9.108;2023-03-03T01:03:23;14.20;;;5.40;;
21843;SDS011;11084;52.482;9.108;2023-03-03T01:05:51;20.90;;;7.73;;
21843;SDS011;11084;52.482;9.108;2023-03-03T01:08:18;22.67;;;7.00;;
21843;SDS011;11084;52.482;9.108;2023-03-03T01:10:56;20.10;;;7.03;;
21843;SDS011;11084;52.482;9.108;2023-03-03T01:13:26;15.97;;;7.77;;
21843;SDS011;11084;52.482;9.108;2023-03-03T01:15:58;15.27;;;6.10;;
21843;SDS011;11084;52.482;9.108;2023-03-03T01:18:25;19.17;;;8.43;;
21843;SDS011;11084;52.482;9.108;2023-03-03T01:20:52;25.13;;;7.97;;
21843;SDS011;11084;52.482;9.108;2023-03-03T01:23:18;18.53;;;7.67;;
21843;SDS011;11084;52.482;9.108;2023-03-03T01:25:44;21.90;;;7.57;;
21843;SDS011;11084;52.482;9.108;2023-03-03T01:28:10;19.83;;;7.77;;
21843;SDS011;11084;52.482;9.108;2023-03-03T01:30:37;14.80;;;6.73;;
21843;SDS011;11084;52.482;9.108;2023-03-03T01:33:06;27.50;;;8.37;;
21843;SDS011;11084;52.482;9.108;2023-03-03T01:35:32;20.50;;;7.33;;
21843;SDS011;11084;52.482;9.108;2023-03-03T01:38:00;13.20;;;7.60;;
21843;SDS011;11084;52.482;9.108;2023-03-03T01:40:28;22.87;;;8.63;;
21843;SDS011;11084;52.482;9.108;2023-03-03T01:42:57;21.17;;;7.37;;
21843;SDS011;11084;52.482;9.108;2023-03-03T01:45:25;13.60;;;5.10;;
21843;SDS011;11084;52.482;9.108;2023-03-03T01:48:05;22.33;;;8.23;;
21843;SDS011;11084;52.482;9.108;2023-03-03T01:50:48;29.80;;;9.73;;
21843;SDS011;11084;52.482;9.108;2023-03-03T01:53:53;14.97;;;7.30;;
21843;SDS011;11084;52.482;9.108;2023-03-03T01:56:29;18.47;;;6.63;;
21843;SDS011;11084;52.482;9.108;2023-03-03T02:01:36;15.77;;;7.07;;
21843;SDS011;11084;52.482;9.108;2023-03-03T02:04:03;18.80;;;7.23;;
21843;SDS011;11084;52.482;9.108;2023-03-03T02:06:30;21.60;;;9.67;;
21843;SDS011;11084;52.482;9.108;2023-03-03T02:09:03;18.63;;;7.63;;
21843;SDS011;11084;52.482;9.108;2023-03-03T02:11:44;14.60;;;6.17;;
21843;SDS011;11084;52.482;9.108;2023-03-03T02:14:13;11.60;;;5.43;;
21843;SDS011;11084;52.482;9.108;2023-03-03T02:16:41;19.77;;;6.83;;
21843;SDS011;11084;52.482;9.108;2023-03-03T02:19:23;21.10;;;8.73;;
21843;SDS011;11084;52.482;9.108;2023-03-03T02:22:02;18.67;;;9.00;;
21843;SDS011;11084;52.482;9.108;2023-03-03T02:24:32;27.73;;;9.43;;
21843;SDS011;11084;52.482;9.108;2023-03-03T02:27:16;20.27;;;7.43;;
21843;SDS011;11084;52.482;9.108;2023-03-03T02:29:42;11.53;;;5.33;;
21843;SDS011;11084;52.482;9.108;2023-03-03T02:32:09;17.33;;;6.07;;
21843;SDS011;11084;52.482;9.108;2023-03-03T02:34:45;29.30;;;7.67;;
21843;SDS011;11084;52.482;9.108;2023-03-03T02:37:16;10.03;;;6.10;;
21843;SDS011;11084;52.482;9.108;2023-03-03T02:39:44;25.20;;;8.03;;
21843;SDS011;11084;52.482;9.108;2023-03-03T02:42:15;22.77;;;8.73;;
21843;SDS011;11084;52.482;9.108;2023-03-03T02:44:51;20.17;;;7.00;;
21843;SDS011;11084;52.482;9.108;2023-03-03T02:47:18;16.90;;;6.67;;
21843;SDS011;11084;52.482;9.108;2023-03-03T02:49:44;15.80;;;6.47;;
21843;SDS011;11084;52.482;9.108;2023-03-03T02:52:10;14.70;;;6.20;;
21843;SDS011;11084;52.482;9.108;2023-03-03T02:54:42;14.30;;;7.03;;
21843;SDS011;11084;52.482;9.108;2023-03-03T02:57:08;17.43;;;6.93;;
21843;SDS011;11084;52.482;9.108;2023-03-03T02:59:34;19.23;;;7.30;;
21843;SDS011;11084;52.482;9.108;2023-03-03T03:02:07;22.13;;;7.63;;
21843;SDS011;11084;52.482;9.108;2023-03-03T03:04:33;17.03;;;6.43;;
21843;SDS011;11084;52.482;9.108;2023-03-03T03:06:59;13.23;;;6.17;;
21843;SDS011;11084;52.482;9.108;2023-03-03T03:09:28;16.33;;;5.83;;
21843;SDS011;11084;52.482;9.108;2023-03-03T03:11:56;10.87;;;5.17;;
21843;SDS011;11084;52.482;9.108;2023-03-03T03:14:26;13.50;;;6.40;;
21843;SDS011;11084;52.482;9.108;2023-03-03T03:16:54;13.93;;;6.07;;
21843;SDS011;11084;52.482;9.108;2023-03-03T03:19:20;23.23;;;9.17;;
21843;SDS011;11084;52.482;9.108;2023-03-03T03:21:46;14.03;;;6.03;;
21843;SDS011;11084;52.482;9.108;2023-03-03T03:24:13;12.47;;;6.53;;
21843;SDS011;11084;52.482;9.108;2023-03-03T03:26:44;16.70;;;6.93;;
21843;SDS011;11084;52.482;9.108;2023-03-03T03:29:11;14.23;;;6.80;;
21843;SDS011;11084;52.482;9.108;2023-03-03T03:31:37;16.00;;;5.77;;
21843;SDS011;11084;52.482;9.108;2023-03-03T03:34:03;17.40;;;6.00;;
21843;SDS011;11084;52.482;9.108;2023-03-03T03:36:30;14.27;;;5.87;;
21843;SDS011;11084;52.482;9.108;2023-03-03T03:38:56;16.83;;;8.43;;
21843;SDS011;11084;52.482;9.108;2023-03-03T03:41:22;17.50;;;7.93;;
21843;SDS011;11084;52.482;9.108;2023-03-03T03:43:48;10.30;;;6.10;;
21843;SDS011;11084;52.482;9.108;2023-03-03T03:46:14;18.37;;;6.87;;
21843;SDS011;11084;52.482;9.108;2023-03-03T03:48:41;20.23;;;6.93;;
21843;SDS011;11084;52.482;9.108;2023-03-03T03:51:10;17.77;;;6.03;;
21843;SDS011;11084;52.482;9.108;2023-03-03T03:53:38;16.13;;;6.73;;
21843;SDS011;11084;52.482;9.108;2023-03-03T03:56:04;13.53;;;5.87;;
21843;SDS011;11084;52.482;9.108;2023-03-03T03:58:31;17.67;;;7.07;;
21843;SDS011;11084;52.482;9.108;2023-03-03T04:01:02;14.67;;;6.63;;
21843;SDS011;11084;52.482;9.108;2023-03-03T04:03:31;14.40;;;5.97;;
21843;SDS011;11084;52.482;9.108;2023-03-03T04:05:59;10.73;;;5.63;;
21843;SDS011;11084;52.482;9.108;2023-03-03T04:08:26;17.47;;;6.50;;
21843;SDS011;11084;52.482;9.108;2023-03-03T04:10:52;18.33;;;7.00;;
21843;SDS011;11084;52.482;9.108;2023-03-03T04:13:18;13.57;;;5.63;;
21843;SDS011;11084;52.482;9.108;2023-03-03T04:15:45;11.93;;;6.13;;
21843;SDS011;11084;52.482;9.108;2023-03-03T04:18:11;15.83;;;6.53;;
21843;SDS011;11084;52.482;9.108;2023-03-03T04:20:38;12.47;;;5.80;;
21843;SDS011;11084;52.482;9.108;2023-03-03T04:23:06;14.00;;;4.80;;
21843;SDS011;11084;52.482;9.108;2023-03-03T04:25:32;12.37;;;6.10;;
21843;SDS011;11084;52.482;9.108;2023-03-03T04:27:58;13.70;;;4.73;;
21843;SDS011;11084;52.482;9.108;2023-03-03T04:30:24;13.03;;;4.30;;
21843;SDS011;11084;52.482;9.108;2023-03-03T04:32:53;14.00;;;5.37;;
21843;SDS011;11084;52.482;9.108;2023-03-03T04:35:23;15.37;;;5.63;;
21843;SDS011;11084;52.482;9.108;2023-03-03T04:37:49;18.50;;;6.07;;
21843;SDS011;11084;52.482;9.108;2023-03-03T04:40:16;9.17;;;4.00;;
21843;SDS011;11084;52.482;9.108;2023-03-03T04:42:44;14.27;;;6.43;;
21843;SDS011;11084;52.482;9.108;2023-03-03T04:45:11;16.30;;;7.50;;
21843;SDS011;11084;52.482;9.108;2023-03-03T04:47:38;18.50;;;8.70;;
21843;SDS011;11084;52.482;9.108;2023-03-03T04:50:06;11.97;;;5.93;;
21843;SDS011;11084;52.482;9.108;2023-03-03T04:52:35;17.17;;;6.40;;
21843;SDS011;11084;52.482;9.108;2023-03-03T04:55:03;15.53;;;6.60;;
21843;SDS011;11084;52.482;9.108;2023-03-03T04:57:30;15.97;;;7.27;;
21843;SDS011;11084;52.482;9.108;2023-03-03T04:59:57;19.20;;;5.77;;
21843;SDS011;11084;52.482;9.108;2023-03-03T05:02:23;12.17;;;4.43;;
21843;SDS011;11084;52.482;9.108;2023-03-03T05:04:50;16.23;;;6.97;;
21843;SDS011;11084;52.482;9.108;2023-03-03T05:07:16;14.50;;;6.30;;
21843;SDS011;11084;52.482;9.108;2023-03-03T05:09:43;25.17;;;5.80;;
21843;SDS011;11084;52.482;9.108;2023-03-03T05:12:09;16.63;;;7.00;;
21843;SDS011;11084;52.482;9.108;2023-03-03T05:14:35;17.07;;;6.60;;
21843;SDS011;11084;52.482;9.108;2023-03-03T05:17:02;15.37;;;6.53;;
21843;SDS011;11084;52.482;9.108;2023-03-03T05:19:28;20.30;;;7.13;;
21843;SDS011;11084;52.482;9.108;2023-03-03T05:21:55;19.03;;;6.10;;
21843;SDS011;11084;52.482;9.108;2023-03-03T05:24:21;20.17;;;7.37;;
21843;SDS011;11084;52.482;9.108;2023-03-03T05:26:48;21.10;;;7.17;;
21843;SDS011;11084;52.482;9.108;2023-03-03T05:29:14;9.07;;;4.97;;
21843;SDS011;11084;52.482;9.108;2023-03-03T05:31:40;16.73;;;6.60;;
21843;SDS011;11084;52.482;9.108;2023-03-03T05:34:06;13.60;;;5.97;;
21843;SDS011;11084;52.482;9.108;2023-03-03T05:36:32;23.07;;;7.07;;
21843;SDS011;11084;52.482;9.108;2023-03-03T05:38:58;14.37;;;5.77;;
21843;SDS011;11084;52.482;9.108;2023-03-03T05:41:24;18.43;;;7.53;;
21843;SDS011;11084;52.482;9.108;2023-03-03T05:43:50;23.43;;;6.67;;
21843;SDS011;11084;52.482;9.108;2023-03-03T05:46:16;16.97;;;6.27;;
21843;SDS011;11084;52.482;9.108;2023-03-03T05:48:42;17.00;;;8.00;;
21843;SDS011;11084;52.482;9.108;2023-03-03T05:51:09;21.20;;;7.33;;
21843;SDS011;11084;52.482;9.108;2023-03-03T05:53:35;17.47;;;7.67;;
21843;SDS011;11084;52.482;9.108;2023-03-03T05:56:04;15.33;;;5.53;;
21843;SDS011;11084;52.482;9.108;2023-03-03T05:58:41;22.97;;;7.87;;
21843;SDS011;11084;52.482;9.108;2023-03-03T06:01:08;14.00;;;5.80;;
21843;SDS011;11084;52.482;9.108;2023-03-03T06:03:34;19.70;;;6.17;;
21843;SDS011;11084;52.482;9.108;2023-03-03T06:06:00;15.00;;;5.97;;
21843;SDS011;11084;52.482;9.108;2023-03-03T06:08:26;18.23;;;8.00;;
21843;SDS011;11084;52.482;9.108;2023-03-03T06:10:53;23.50;;;8.33;;
21843;SDS011;11084;52.482;9.108;2023-03-03T06:13:20;15.30;;;7.47;;
21843;SDS011;11084;52.482;9.108;2023-03-03T06:15:46;12.00;;;6.20;;
21843;SDS011;11084;52.482;9.108;2023-03-03T06:18:12;16.40;;;6.03;;
21843;SDS011;11084;52.482;9.108;2023-03-03T06:20:38;16.43;;;5.53;;
21843;SDS011;11084;52.482;9.108;2023-03-03T06:23:04;20.10;;;6.27;;
21843;SDS011;11084;52.482;9.108;2023-03-03T06:25:30;13.23;;;5.63;;
21843;SDS011;11084;52.482;9.108;2023-03-03T06:28:00;10.67;;;5.80;;
21843;SDS011;11084;52.482;9.108;2023-03-03T06:30:27;19.47;;;7.13;;
21843;SDS011;11084;52.482;9.108;2023-03-03T06:32:54;15.40;;;6.53;;
21843;SDS011;11084;52.482;9.108;2023-03-03T06:35:21;15.90;;;6.00;;
21843;SDS011;11084;52.482;9.108;2023-03-03T06:37:47;13.43;;;6.70;;
21843;SDS011;11084;52.482;9.108;2023-03-03T06:40:15;17.93;;;6.50;;
21843;SDS011;11084;52.482;9.108;2023-03-03T06:42:41;16.87;;;7.27;;
21843;SDS011;11084;52.482;9.108;2023-03-03T06:45:07;16.43;;;8.00;;
21843;SDS011;11084;52.482;9.108;2023-03-03T06:47:33;22.43;;;8.70;;
21843;SDS011;11084;52.482;9.108;2023-03-03T06:50:00;16.80;;;7.10;;
21843;SDS011;11084;52.482;9.108;2023-03-03T06:52:26;20.77;;;7.87;;
21843;SDS011;11084;52.482;9.108;2023-03-03T06:54:53;13.90;;;6.43;;
21843;SDS011;11084;52.482;9.108;2023-03-03T06:57:30;16.77;;;7.07;;
21843;SDS011;11084;52.482;9.108;2023-03-03T06:59:59;17.23;;;6.97;;
21843;SDS011;11084;52.482;9.108;2023-03-03T07:02:45;18.23;;;8.17;;
21843;SDS011;11084;52.482;9.108;2023-03-03T07:05:41;19.67;;;7.23;;
21843;SDS011;11084;52.482;9.108;2023-03-03T07:08:16;14.73;;;6.67;;
21843;SDS011;11084;52.482;9.108;2023-03-03T07:10:45;16.67;;;6.80;;
21843;SDS011;11084;52.482;9.108;2023-03-03T07:13:23;22.67;;;7.80;;
21843;SDS011;11084;52.482;9.108;2023-03-03T07:15:52;17.07;;;6.47;;
21843;SDS011;11084;52.482;9.108;2023-03-03T07:18:38;21.10;;;7.17;;
21843;SDS011;11084;52.482;9.108;2023-03-03T07:23:48;28.30;;;8.27;;
21843;SDS011;11084;52.482;9.108;2023-03-03T07:26:17;16.40;;;7.53;;
21843;SDS011;11084;52.482;9.108;2023-03-03T07:28:56;20.73;;;10.03;;
21843;SDS011;11084;52.482;9.108;2023-03-03T07:31:30;13.77;;;7.20;;
21843;SDS011;11084;52.482;9.108;2023-03-03T07:36:45;20.87;;;7.57;;
21843;SDS011;11084;52.482;9.108;2023-03-03T07:39:24;26.60;;;9.60;;
21843;SDS011;11084;52.482;9.108;2023-03-03T07:47:59;39.33;;;13.20;;
21843;SDS011;11084;52.482;9.108;2023-03-03T07:50:35;20.53;;;8.17;;
21843;SDS011;11084;52.482;9.108;2023-03-03T07:53:01;29.33;;;9.47;;
21843;SDS011;11084;52.482;9.108;2023-03-03T07:55:36;15.23;;;7.27;;
21843;SDS011;11084;52.482;9.108;2023-03-03T08:03:56;17.90;;;7.87;;
21843;SDS011;11084;52.482;9.108;2023-03-03T08:09:47;28.90;;;8.30;;
21843;SDS011;11084;52.482;9.108;2023-03-03T08:14:48;21.33;;;8.60;;
21843;SDS011;11084;52.482;9.108;2023-03-03T08:17:19;19.43;;;8.70;;
21843;SDS011;11084;52.482;9.108;2023-03-03T08:19:51;22.07;;;7.93;;
21843;SDS011;11084;52.482;9.108;2023-03-03T08:22:28;29.80;;;10.13;;
21843;SDS011;11084;52.482;9.108;2023-03-03T08:24:59;18.93;;;7.33;;
21843;SDS011;11084;52.482;9.108;2023-03-03T08:27:26;18.27;;;7.90;;
21843;SDS011;11084;52.482;9.108;2023-03-03T08:29:52;23.33;;;8.20;;
21843;SDS011;11084;52.482;9.108;2023-03-03T08:32:18;20.60;;;8.23;;
21843;SDS011;11084;52.482;9.108;2023-03-03T08:34:44;24.60;;;9.63;;
21843;SDS011;11084;52.482;9.108;2023-03-03T08:37:10;32.57;;;8.80;;
21843;SDS011;11084;52.482;9.108;2023-03-03T08:39:36;19.87;;;8.77;;
21843;SDS011;11084;52.482;9.108;2023-03-03T08:42:03;23.60;;;7.53;;
21843;SDS011;11084;52.482;9.108;2023-03-03T08:44:31;19.17;;;8.20;;
21843;SDS011;11084;52.482;9.108;2023-03-03T08:46:57;23.37;;;7.07;;
21843;SDS011;11084;52.482;9.108;2023-03-03T08:49:23;23.37;;;7.83;;
21843;SDS011;11084;52.482;9.108;2023-03-03T08:51:49;26.83;;;8.30;;
21843;SDS011;11084;52.482;9.108;2023-03-03T08:54:16;31.03;;;8.10;;
21843;SDS011;11084;52.482;9.108;2023-03-03T08:56:42;27.23;;;9.20;;
21843;SDS011;11084;52.482;9.108;2023-03-03T08:59:09;27.03;;;9.73;;
21843;SDS011;11084;52.482;9.108;2023-03-03T09:01:36;23.50;;;9.23;;
21843;SDS011;11084;52.482;9.108;2023-03-03T09:04:02;25.23;;;7.80;;
21843;SDS011;11084;52.482;9.108;2023-03-03T09:06:28;25.47;;;9.60;;
21843;SDS011;11084;52.482;9.108;2023-03-03T09:08:54;22.73;;;8.97;;
21843;SDS011;11084;52.482;9.108;2023-03-03T09:11:24;23.90;;;7.83;;
21843;SDS011;11084;52.482;9.108;2023-03-03T09:14:11;22.67;;;8.23;;
21843;SDS011;11084;52.482;9.108;2023-03-03T09:16:45;18.63;;;7.97;;
21843;SDS011;11084;52.482;9.108;2023-03-03T09:19:18;24.73;;;8.27;;
21843;SDS011;11084;52.482;9.108;2023-03-03T09:21:55;20.97;;;7.67;;
21843;SDS011;11084;52.482;9.108;2023-03-03T09:24:54;17.77;;;8.23;;
21843;SDS011;11084;52.482;9.108;2023-03-03T09:27:27;16.43;;;6.13;;
21843;SDS011;11084;52.482;9.108;2023-03-03T09:29:56;17.73;;;6.97;;
21843;SDS011;11084;52.482;9.108;2023-03-03T09:32:38;23.23;;;8.07;;
21843;SDS011;11084;52.482;9.108;2023-03-03T09:38:23;21.47;;;8.23;;
21843;SDS011;11084;52.482;9.108;2023-03-03T09:47:02;19.77;;;8.23;;
21843;SDS011;11084;52.482;9.108;2023-03-03T09:49:34;23.07;;;8.57;;
21843;SDS011;11084;52.482;9.108;2023-03-03T09:57:51;21.60;;;7.77;;
21843;SDS011;11084;52.482;9.108;2023-03-03T10:06:20;22.83;;;9.10;;
21843;SDS011;11084;52.482;9.108;2023-03-03T10:12:27;26.80;;;8.50;;
21843;SDS011;11084;52.482;9.108;2023-03-03T10:23:37;25.07;;;7.90;;
21843;SDS011;11084;52.482;9.108;2023-03-03T10:37:54;19.53;;;6.70;;
21843;SDS011;11084;52.482;9.108;2023-03-03T10:40:57;18.27;;;6.93;;
21843;SDS011;11084;52.482;9.108;2023-03-03T10:52:30;26.70;;;9.60;;
21843;SDS011;11084;52.482;9.108;2023-03-03T10:55:25;18.03;;;7.97;;
21843;SDS011;11084;52.482;9.108;2023-03-03T11:09:48;13.10;;;5.07;;
21843;SDS011;11084;52.482;9.108;2023-03-03T11:18:34;15.03;;;6.13;;
21843;SDS011;11084;52.482;9.108;2023-03-03T11:24:27;24.77;;;8.30;;
21843;SDS011;11084;52.482;9.108;2023-03-03T11:30:19;23.07;;;8.67;;
21843;SDS011;11084;52.482;9.108;2023-03-03T11:35:37;19.87;;;6.17;;
21843;SDS011;11084;52.482;9.108;2023-03-03T11:41:22;13.83;;;6.20;;
21843;SDS011;11084;52.482;9.108;2023-03-03T11:43:57;15.30;;;6.90;;
21843;SDS011;11084;52.482;9.108;2023-03-03T11:46:43;17.23;;;6.00;;
21843;SDS011;11084;52.482;9.108;2023-03-03T11:55:35;18.37;;;6.67;;
21843;SDS011;11084;52.482;9.108;2023-03-03T11:58:07;16.37;;;7.80;;
21843;SDS011;11084;52.482;9.108;2023-03-03T12:00:50;15.57;;;5.37;;
21843;SDS011;11084;52.482;9.108;2023-03-03T12:03:30;21.53;;;8.53;;
21843;SDS011;11084;52.482;9.108;2023-03-03T12:06:16;16.23;;;6.27;;
21843;SDS011;11084;52.482;9.108;2023-03-03T12:12:07;22.53;;;8.43;;
21843;SDS011;11084;52.482;9.108;2023-03-03T12:17:39;22.13;;;7.80;;
21843;SDS011;11084;52.482;9.108;2023-03-03T12:20:41;17.53;;;6.43;;
21843;SDS011;11084;52.482;9.108;2023-03-03T12:26:19;20.73;;;6.37;;
21843;SDS011;11084;52.482;9.108;2023-03-03T12:28:57;21.37;;;8.47;;
21843;SDS011;11084;52.482;9.108;2023-03-03T12:40:18;30.17;;;8.63;;
21843;SDS011;11084;52.482;9.108;2023-03-03T12:46:52;14.83;;;6.33;;
21843;SDS011;11084;52.482;9.108;2023-03-03T12:49:18;23.50;;;7.80;;
21843;SDS011;11084;52.482;9.108;2023-03-03T12:51:47;18.70;;;6.33;;
21843;SDS011;11084;52.482;9.108;2023-03-03T12:54:54;24.20;;;6.70;;
21843;SDS011;11084;52.482;9.108;2023-03-03T13:00:26;17.83;;;7.03;;
21843;SDS011;11084;52.482;9.108;2023-03-03T13:12:25;17.00;;;7.97;;
21843;SDS011;11084;52.482;9.108;2023-03-03T13:15:51;23.43;;;7.03;;
21843;SDS011;11084;52.482;9.108;2023-03-03T13:21:09;34.63;;;12.17;;
21843;SDS011;11084;52.482;9.108;2023-03-03T13:23:59;29.17;;;11.17;;
21843;SDS011;11084;52.482;9.108;2023-03-03T13:26:46;23.00;;;9.73;;
21843;SDS011;11084;52.482;9.108;2023-03-03T13:37:28;32.00;;;12.53;;
21843;SDS011;11084;52.482;9.108;2023-03-03T13:40:03;21.80;;;8.57;;
21843;SDS011;11084;52.482;9.108;2023-03-03T13:42:56;24.33;;;8.07;;
21843;SDS011;11084;52.482;9.108;2023-03-03T13:54:45;42.70;;;16.03;;
21843;SDS011;11084;52.482;9.108;2023-03-03T13:58:00;28.60;;;7.73;;
21843;SDS011;11084;52.482;9.108;2023-03-03T14:01:31;17.13;;;7.07;;
21843;SDS011;11084;52.482;9.108;2023-03-03T14:04:53;18.03;;;6.20;;
21843;SDS011;11084;52.482;9.108;2023-03-03T14:07:41;26.07;;;7.23;;
21843;SDS011;11084;52.482;9.108;2023-03-03T14:11:10;20.93;;;7.03;;
21843;SDS011;11084;52.482;9.108;2023-03-03T14:13:29;11.27;;;4.77;;
21843;SDS011;11084;52.482;9.108;2023-03-03T14:19:05;15.33;;;6.60;;
21843;SDS011;11084;52.482;9.108;2023-03-03T14:25:12;21.27;;;6.77;;
21843;SDS011;11084;52.482;9.108;2023-03-03T14:27:41;13.70;;;6.47;;
21843;SDS011;11084;52.482;9.108;2023-03-03T14:30:46;17.53;;;6.53;;
21843;SDS011;11084;52.482;9.108;2023-03-03T14:35:43;18.23;;;5.97;;
21843;SDS011;11084;52.482;9.108;2023-03-03T14:43:41;17.73;;;6.63;;
21843;SDS011;11084;52.482;9.108;2023-03-03T14:48:52;17.40;;;6.70;;
21843;SDS011;11084;52.482;9.108;2023-03-03T14:51:24;15.17;;;6.33;;
21843;SDS011;11084;52.482;9.108;2023-03-03T14:54:05;19.97;;;6.90;;
21843;SDS011;11084;52.482;9.108;2023-03-03T15:02:29;19.33;;;7.03;;
21843;SDS011;11084;52.482;9.108;2023-03-03T15:10:31;23.60;;;6.70;;
21843;SDS011;11084;52.482;9.108;2023-03-03T15:15:50;14.43;;;6.53;;
21843;SDS011;11084;52.482;9.108;2023-03-03T15:18:27;26.03;;;7.97;;
21843;SDS011;11084;52.482;9.108;2023-03-03T15:21:17;15.80;;;5.43;;
21843;SDS011;11084;52.482;9.108;2023-03-03T15:23:55;24.77;;;7.47;;
21843;SDS011;11084;52.482;9.108;2023-03-03T15:26:44;16.63;;;7.27;;
21843;SDS011;11084;52.482;9.108;2023-03-03T15:29:24;25.80;;;7.83;;
21843;SDS011;11084;52.482;9.108;2023-03-03T15:32:23;16.83;;;7.63;;
21843;SDS011;11084;52.482;9.108;2023-03-03T15:37:58;18.63;;;6.00;;
21843;SDS011;11084;52.482;9.108;2023-03-03T15:40:49;15.17;;;5.57;;
21843;SDS011;11084;52.482;9.108;2023-03-03T15:43:58;13.13;;;5.97;;
21843;SDS011;11084;52.482;9.108;2023-03-03T16:04:35;12.30;;;5.20;;
21843;SDS011;11084;52.482;9.108;2023-03-03T16:07:13;14.17;;;5.30;;
21843;SDS011;11084;52.482;9.108;2023-03-03T16:12:42;18.67;;;5.80;;
21843;SDS011;11084;52.482;9.108;2023-03-03T16:29:39;18.73;;;5.93;;
21843;SDS011;11084;52.482;9.108;2023-03-03T16:32:33;10.83;;;5.37;;
21843;SDS011;11084;52.482;9.108;2023-03-03T16:35:24;16.73;;;6.13;;
21843;SDS011;11084;52.482;9.108;2023-03-03T16:37:58;15.07;;;6.03;;
21843;SDS011;11084;52.482;9.108;2023-03-03T16:49:07;13.67;;;5.60;;
21843;SDS011;11084;52.482;9.108;2023-03-03T16:51:55;13.37;;;4.87;;
21843;SDS011;11084;52.482;9.108;2023-03-03T16:57:55;11.23;;;5.27;;
21843;SDS011;11084;52.482;9.108;2023-03-03T17:00:34;13.87;;;7.03;;
21843;SDS011;11084;52.482;9.108;2023-03-03T17:06:26;16.00;;;5.17;;
21843;SDS011;11084;52.482;9.108;2023-03-03T17:12:41;12.73;;;5.90;;
21843;SDS011;11084;52.482;9.108;2023-03-03T17:15:27;14.27;;;6.50;;
21843;SDS011;11084;52.482;9.108;2023-03-03T17:45:11;23.10;;;10.17;;
21843;SDS011;11084;52.482;9.108;2023-03-03T17:47:52;30.37;;;12.20;;
21843;SDS011;11084;52.482;9.108;2023-03-03T17:59:49;9.73;;;5.00;;
21843;SDS011;11084;52.482;9.108;2023-03-03T18:02:54;12.93;;;6.03;;
21843;SDS011;11084;52.482;9.108;2023-03-03T18:06:01;13.97;;;6.50;;
21843;SDS011;11084;52.482;9.108;2023-03-03T18:08:57;17.50;;;7.00;;
21843;SDS011;11084;52.482;9.108;2023-03-03T18:14:38;20.97;;;6.97;;
21843;SDS011;11084;52.482;9.108;2023-03-03T18:20:22;17.87;;;7.60;;
21843;SDS011;11084;52.482;9.108;2023-03-03T18:22:57;13.67;;;6.20;;
21843;SDS011;11084;52.482;9.108;2023-03-03T18:26:01;14.40;;;7.43;;
21843;SDS011;11084;52.482;9.108;2023-03-03T18:28:50;16.73;;;6.47;;
21843;SDS011;11084;52.482;9.108;2023-03-03T18:31:23;11.37;;;5.70;;
21843;SDS011;11084;52.482;9.108;2023-03-03T18:34:08;12.70;;;5.53;;
21843;SDS011;11084;52.482;9.108;2023-03-03T18:37:00;14.07;;;6.03;;
21843;SDS011;11084;52.482;9.108;2023-03-03T18:42:33;9.47;;;4.30;;
21843;SDS011;11084;52.482;9.108;2023-03-03T18:55:42;9.30;;;4.10;;
21843;SDS011;11084;52.482;9.108;2023-03-03T19:00:46;10.50;;;4.30;;
21843;SDS011;11084;52.482;9.108;2023-03-03T19:03:37;6.87;;;3.80;;
21843;SDS011;11084;52.482;9.108;2023-03-03T19:07:14;7.23;;;3.17;;
21843;SDS011;11084;52.482;9.108;2023-03-03T19:09:42;5.77;;;3.17;;
21843;SDS011;11084;52.482;9.108;2023-03-03T19:12:16;5.37;;;3.20;;
21843;SDS011;11084;52.482;9.108;2023-03-03T19:14:51;4.73;;;2.80;;
21843;SDS011;11084;52.482;9.108;2023-03-03T19:25:20;3.27;;;1.70;;
21843;SDS011;11084;52.482;9.108;2023-03-03T19:36:20;2.77;;;1.73;;
21843;SDS011;11084;52.482;9.108;2023-03-03T19:39:18;3.13;;;1.43;;
21843;SDS011;11084;52.482;9.108;2023-03-03T19:46:12;3.40;;;0.90;;
21843;SDS011;11084;52.482;9.108;2023-03-03T19:57:02;1.47;;;1.20;;
21843;SDS011;11084;52.482;9.108;2023-03-03T20:02:24;2.93;;;1.33;;
21843;SDS011;11084;52.482;9.108;2023-03-03T20:05:32;1.50;;;0.90;;
21843;SDS011;11084;52.482;9.108;2023-03-03T20:08:08;1.27;;;1.17;;
21843;SDS011;11084;52.482;9.108;2023-03-03T20:13:19;4.77;;;1.33;;
21843;SDS011;11084;52.482;9.108;2023-03-03T20:22:22;1.80;;;0.70;;
21843;SDS011;11084;52.482;9.108;2023-03-03T20:25:17;8.10;;;1.23;;
21843;SDS011;11084;52.482;9.108;2023-03-03T20:31:31;6.93;;;1.90;;
21843;SDS011;11084;52.482;9.108;2023-03-03T20:34:18;12.23;;;2.10;;
21843;SDS011;11084;52.482;9.108;2023-03-03T20:52:05;27.73;;;6.03;;
21843;SDS011;11084;52.482;9.108;2023-03-03T20:58:33;26.70;;;5.70;;
21843;SDS011;11084;52.482;9.108;2023-03-03T21:11:22;42.87;;;10.43;;
21843;SDS011;11084;52.482;9.108;2023-03-03T21:14:21;61.33;;;15.87;;
21843;SDS011;11084;52.482;9.108;2023-03-03T21:16:50;19.80;;;6.23;;
21843;SDS011;11084;52.482;9.108;2023-03-03T21:19:25;34.80;;;9.57;;
21843;SDS011;11084;52.482;9.108;2023-03-03T21:21:59;45.57;;;9.97;;
21843;SDS011;11084;52.482;9.108;2023-03-03T21:27:31;7.70;;;2.90;;
21843;SDS011;11084;52.482;9.108;2023-03-03T21:30:03;10.97;;;2.63;;
21843;SDS011;11084;52.482;9.108;2023-03-03T21:32:46;13.80;;;2.87;;
21843;SDS011;11084;52.482;9.108;2023-03-03T21:35:16;17.17;;;3.53;;
21843;SDS011;11084;52.482;9.108;2023-03-03T21:37:54;15.10;;;4.43;;
21843;SDS011;11084;52.482;9.108;2023-03-03T21:40:25;8.23;;;3.43;;
21843;SDS011;11084;52.482;9.108;2023-03-03T21:42:54;26.90;;;6.47;;
21843;SDS011;11084;52.482;9.108;2023-03-03T21:45:26;14.33;;;3.77;;
21843;SDS011;11084;52.482;9.108;2023-03-03T21:47:54;13.87;;;3.23;;
21843;SDS011;11084;52.482;9.108;2023-03-03T21:50:22;10.20;;;3.43;;
21843;SDS011;11084;52.482;9.108;2023-03-03T21:52:53;16.23;;;2.43;;
21843;SDS011;11084;52.482;9.108;2023-03-03T21:55:20;11.83;;;2.83;;